sensor_id;sensor_type;location;lat;lon;timestamp;temperature;humidity
10300;DHT22;5195;48.562;9.192;2023-01-29T00:00:50;4.00;49.90
10300;DHT22;5195;48.562;9.192;2023-01-29T00:03:27;3.90;50.00
10300;DHT22;5195;48.562;9.192;2023-01-29T00:06:04;3.60;50.40
10300;DHT22;5195;48.562;9.192;2023-01-29T00:08:39;3.60;50.10
10300;DHT22;5195;48.562;9.192;2023-01-29T00:11:17;3.90;49.60
10300;DHT22;5195;48.562;9.192;2023-01-29T00:13:52;4.10;48.90
10300;DHT22;5195;48.562;9.192;2023-01-29T00:16:28;4.30;48.60
10300;DHT22;5195;48.562;9.192;2023-01-29T00:19:02;4.10;48.90
10300;DHT22;5195;48.562;9.192;2023-01-29T00:21:40;3.80;49.50
10300;DHT22;5195;48.562;9.192;2023-01-29T00:24:14;3.50;50.20
10300;DHT22;5195;48.562;9.192;2023-01-29T00:26:52;3.90;49.60
10300;DHT22;5195;48.562;9.192;2023-01-29T00:29:27;3.90;49.60
10300;DHT22;5195;48.562;9.192;2023-01-29T00:32:01;4.20;49.00
10300;DHT22;5195;48.562;9.192;2023-01-29T00:34:38;4.40;48.40
10300;DHT22;5195;48.562;9.192;2023-01-29T00:37:12;4.10;48.50
10300;DHT22;5195;48.562;9.192;2023-01-29T00:39:48;4.10;48.60
10300;DHT22;5195;48.562;9.192;2023-01-29T00:42:24;4.20;48.30
10300;DHT22;5195;48.562;9.192;2023-01-29T00:45:21;4.10;48.60
10300;DHT22;5195;48.562;9.192;2023-01-29T00:47:55;4.10;48.70
10300;DHT22;5195;48.562;9.192;2023-01-29T00:50:33;4.00;48.90
10300;DHT22;5195;48.562;9.192;2023-01-29T00:53:08;4.00;48.90
10300;DHT22;5195;48.562;9.192;2023-01-29T00:55:43;4.20;48.30
10300;DHT22;5195;48.562;9.192;2023-01-29T00:58:20;4.00;48.40
10300;DHT22;5195;48.562;9.192;2023-01-29T01:01:00;4.00;48.30
10300;DHT22;5195;48.562;9.192;2023-01-29T01:03:34;3.90;48.50
10300;DHT22;5195;48.562;9.192;2023-01-29T01:06:15;3.60;49.10
10300;DHT22;5195;48.562;9.192;2023-01-29T01:08:48;3.60;49.20
10300;DHT22;5195;48.562;9.192;2023-01-29T01:11:43;3.90;48.70
10300;DHT22;5195;48.562;9.192;2023-01-29T01:14:18;4.20;48.30
10300;DHT22;5195;48.562;9.192;2023-01-29T01:16:54;4.00;48.30
10300;DHT22;5195;48.562;9.192;2023-01-29T01:19:32;4.00;48.20
10300;DHT22;5195;48.562;9.192;2023-01-29T01:22:06;4.20;47.90
10300;DHT22;5195;48.562;9.192;2023-01-29T01:24:41;4.00;48.00
10300;DHT22;5195;48.562;9.192;2023-01-29T01:27:18;3.70;48.70
10300;DHT22;5195;48.562;9.192;2023-01-29T01:29:53;3.70;48.70
10300;DHT22;5195;48.562;9.192;2023-01-29T01:32:30;3.50;49.50
10300;DHT22;5195;48.562;9.192;2023-01-29T01:35:06;3.40;49.40
10300;DHT22;5195;48.562;9.192;2023-01-29T01:37:43;3.60;49.70
10300;DHT22;5195;48.562;9.192;2023-01-29T01:40:21;3.60;49.70
10300;DHT22;5195;48.562;9.192;2023-01-29T01:42:57;3.70;49.50
10300;DHT22;5195;48.562;9.192;2023-01-29T01:45:36;3.90;48.70
10300;DHT22;5195;48.562;9.192;2023-01-29T01:48:29;3.90;48.70
10300;DHT22;5195;48.562;9.192;2023-01-29T01:51:00;3.70;49.30
10300;DHT22;5195;48.562;9.192;2023-01-29T01:53:39;3.40;49.70
10300;DHT22;5195;48.562;9.192;2023-01-29T01:56:18;3.20;50.10
10300;DHT22;5195;48.562;9.192;2023-01-29T01:58:57;3.00;50.50
10300;DHT22;5195;48.562;9.192;2023-01-29T02:01:33;2.90;50.80
10300;DHT22;5195;48.562;9.192;2023-01-29T02:04:09;3.10;50.70
10300;DHT22;5195;48.562;9.192;2023-01-29T02:07:04;3.20;50.50
10300;DHT22;5195;48.562;9.192;2023-01-29T02:10:13;3.40;50.50
10300;DHT22;5195;48.562;9.192;2023-01-29T02:12:48;3.70;49.90
10300;DHT22;5195;48.562;9.192;2023-01-29T02:15:24;3.70;49.20
10300;DHT22;5195;48.562;9.192;2023-01-29T02:17:58;4.00;48.50
10300;DHT22;5195;48.562;9.192;2023-01-29T02:20:36;4.00;48.50
10300;DHT22;5195;48.562;9.192;2023-01-29T02:23:53;3.90;48.60
10300;DHT22;5195;48.562;9.192;2023-01-29T02:26:24;3.90;48.60
10300;DHT22;5195;48.562;9.192;2023-01-29T02:29:04;4.20;48.20
10300;DHT22;5195;48.562;9.192;2023-01-29T02:31:40;4.40;47.60
10300;DHT22;5195;48.562;9.192;2023-01-29T02:34:35;4.20;47.80
10300;DHT22;5195;48.562;9.192;2023-01-29T02:37:46;4.10;48.00
10300;DHT22;5195;48.562;9.192;2023-01-29T02:40:21;3.90;48.30
10300;DHT22;5195;48.562;9.192;2023-01-29T02:43:00;3.90;48.30
10300;DHT22;5195;48.562;9.192;2023-01-29T02:51:38;3.30;49.50
10300;DHT22;5195;48.562;9.192;2023-01-29T02:57:21;2.90;50.30
10300;DHT22;5195;48.562;9.192;2023-01-29T03:00:15;2.80;50.80
10300;DHT22;5195;48.562;9.192;2023-01-29T03:02:51;2.70;50.90
10300;DHT22;5195;48.562;9.192;2023-01-29T03:05:30;2.90;50.40
10300;DHT22;5195;48.562;9.192;2023-01-29T03:08:05;3.00;50.20
10300;DHT22;5195;48.562;9.192;2023-01-29T03:10:39;2.90;50.90
10300;DHT22;5195;48.562;9.192;2023-01-29T03:13:19;3.10;50.20
10300;DHT22;5195;48.562;9.192;2023-01-29T03:15:54;3.10;49.90
10300;DHT22;5195;48.562;9.192;2023-01-29T03:18:40;3.00;50.20
10300;DHT22;5195;48.562;9.192;2023-01-29T03:21:10;3.20;50.30
10300;DHT22;5195;48.562;9.192;2023-01-29T03:23:46;3.80;48.40
10300;DHT22;5195;48.562;9.192;2023-01-29T03:26:42;4.10;46.70
10300;DHT22;5195;48.562;9.192;2023-01-29T03:29:40;4.10;46.70
10300;DHT22;5195;48.562;9.192;2023-01-29T03:32:33;4.30;46.10
10300;DHT22;5195;48.562;9.192;2023-01-29T03:35:08;4.50;45.80
10300;DHT22;5195;48.562;9.192;2023-01-29T03:37:45;4.20;46.20
10300;DHT22;5195;48.562;9.192;2023-01-29T03:40:19;3.80;46.90
10300;DHT22;5195;48.562;9.192;2023-01-29T03:43:07;3.80;47.60
10300;DHT22;5195;48.562;9.192;2023-01-29T03:46:09;4.00;47.70
10300;DHT22;5195;48.562;9.192;2023-01-29T03:48:59;4.20;47.60
10300;DHT22;5195;48.562;9.192;2023-01-29T03:52:09;4.20;47.80
10300;DHT22;5195;48.562;9.192;2023-01-29T03:54:51;3.70;48.40
10300;DHT22;5195;48.562;9.192;2023-01-29T03:57:30;3.70;48.40
10300;DHT22;5195;48.562;9.192;2023-01-29T04:00:22;3.80;48.70
10300;DHT22;5195;48.562;9.192;2023-01-29T04:08:39;3.50;49.10
10300;DHT22;5195;48.562;9.192;2023-01-29T04:11:13;3.50;49.10
10300;DHT22;5195;48.562;9.192;2023-01-29T04:13:49;3.90;49.00
10300;DHT22;5195;48.562;9.192;2023-01-29T04:16:26;3.90;48.30
10300;DHT22;5195;48.562;9.192;2023-01-29T04:19:00;4.10;47.60
10300;DHT22;5195;48.562;9.192;2023-01-29T04:21:35;4.30;47.10
10300;DHT22;5195;48.562;9.192;2023-01-29T04:24:11;4.10;47.80
10300;DHT22;5195;48.562;9.192;2023-01-29T04:29:44;3.40;48.20
10300;DHT22;5195;48.562;9.192;2023-01-29T04:35:10;3.90;47.50
10300;DHT22;5195;48.562;9.192;2023-01-29T04:37:52;4.10;46.60
10300;DHT22;5195;48.562;9.192;2023-01-29T04:43:14;3.70;47.50
10300;DHT22;5195;48.562;9.192;2023-01-29T04:54:49;2.70;50.00
10300;DHT22;5195;48.562;9.192;2023-01-29T04:57:23;2.70;49.80
10300;DHT22;5195;48.562;9.192;2023-01-29T05:00:11;2.60;50.00
10300;DHT22;5195;48.562;9.192;2023-01-29T05:02:44;2.60;50.30
10300;DHT22;5195;48.562;9.192;2023-01-29T05:05:20;2.90;49.90
10300;DHT22;5195;48.562;9.192;2023-01-29T05:07:55;3.00;49.60
10300;DHT22;5195;48.562;9.192;2023-01-29T05:10:31;2.90;49.80
10300;DHT22;5195;48.562;9.192;2023-01-29T05:13:09;2.80;49.70
10300;DHT22;5195;48.562;9.192;2023-01-29T05:18:37;3.50;48.40
10300;DHT22;5195;48.562;9.192;2023-01-29T05:21:14;3.80;47.00
10300;DHT22;5195;48.562;9.192;2023-01-29T05:24:07;3.70;47.00
10300;DHT22;5195;48.562;9.192;2023-01-29T05:26:46;3.80;46.10
10300;DHT22;5195;48.562;9.192;2023-01-29T05:29:43;3.60;46.20
10300;DHT22;5195;48.562;9.192;2023-01-29T05:32:17;3.70;45.60
10300;DHT22;5195;48.562;9.192;2023-01-29T05:34:51;3.60;46.00
10300;DHT22;5195;48.562;9.192;2023-01-29T05:37:27;3.60;46.00
10300;DHT22;5195;48.562;9.192;2023-01-29T05:40:13;3.50;46.20
10300;DHT22;5195;48.562;9.192;2023-01-29T05:42:39;3.60;46.60
10300;DHT22;5195;48.562;9.192;2023-01-29T05:45:14;3.50;46.70
10300;DHT22;5195;48.562;9.192;2023-01-29T05:47:54;3.30;47.20
10300;DHT22;5195;48.562;9.192;2023-01-29T05:50:26;3.40;47.00
10300;DHT22;5195;48.562;9.192;2023-01-29T05:53:06;3.60;46.20
10300;DHT22;5195;48.562;9.192;2023-01-29T05:55:48;3.60;46.20
10300;DHT22;5195;48.562;9.192;2023-01-29T05:58:22;3.30;46.90
10300;DHT22;5195;48.562;9.192;2023-01-29T06:01:06;3.10;47.60
10300;DHT22;5195;48.562;9.192;2023-01-29T06:03:32;3.20;47.80
10300;DHT22;5195;48.562;9.192;2023-01-29T06:06:09;3.30;47.90
10300;DHT22;5195;48.562;9.192;2023-01-29T06:08:45;3.40;48.10
10300;DHT22;5195;48.562;9.192;2023-01-29T06:11:20;3.70;46.70
10300;DHT22;5195;48.562;9.192;2023-01-29T06:13:56;4.00;46.20
10300;DHT22;5195;48.562;9.192;2023-01-29T06:16:31;3.90;46.30
10300;DHT22;5195;48.562;9.192;2023-01-29T06:19:07;3.60;46.90
10300;DHT22;5195;48.562;9.192;2023-01-29T06:21:44;3.60;46.50
10300;DHT22;5195;48.562;9.192;2023-01-29T06:24:20;3.80;45.70
10300;DHT22;5195;48.562;9.192;2023-01-29T06:26:57;3.80;45.90
10300;DHT22;5195;48.562;9.192;2023-01-29T06:29:32;3.80;45.90
10300;DHT22;5195;48.562;9.192;2023-01-29T06:32:07;4.00;45.80
10300;DHT22;5195;48.562;9.192;2023-01-29T06:34:43;3.90;46.10
10300;DHT22;5195;48.562;9.192;2023-01-29T06:37:18;3.90;45.80
10300;DHT22;5195;48.562;9.192;2023-01-29T06:39:54;4.10;44.90
10300;DHT22;5195;48.562;9.192;2023-01-29T06:42:30;4.30;44.00
10300;DHT22;5195;48.562;9.192;2023-01-29T06:45:05;4.40;44.10
10300;DHT22;5195;48.562;9.192;2023-01-29T06:47:43;3.80;45.80
10300;DHT22;5195;48.562;9.192;2023-01-29T06:50:19;3.80;45.20
10300;DHT22;5195;48.562;9.192;2023-01-29T06:52:54;3.50;45.70
10300;DHT22;5195;48.562;9.192;2023-01-29T06:55:33;3.30;46.40
10300;DHT22;5195;48.562;9.192;2023-01-29T06:58:09;3.10;46.80
10300;DHT22;5195;48.562;9.192;2023-01-29T07:00:43;3.20;46.10
10300;DHT22;5195;48.562;9.192;2023-01-29T07:03:20;3.20;45.90
10300;DHT22;5195;48.562;9.192;2023-01-29T07:05:55;3.00;46.30
10300;DHT22;5195;48.562;9.192;2023-01-29T07:08:31;2.90;46.80
10300;DHT22;5195;48.562;9.192;2023-01-29T07:11:07;3.00;46.70
10300;DHT22;5195;48.562;9.192;2023-01-29T07:13:42;3.10;46.90
10300;DHT22;5195;48.562;9.192;2023-01-29T07:16:22;3.00;47.30
10300;DHT22;5195;48.562;9.192;2023-01-29T07:18:53;3.20;47.20
10300;DHT22;5195;48.562;9.192;2023-01-29T07:21:28;3.50;46.20
10300;DHT22;5195;48.562;9.192;2023-01-29T07:24:04;3.80;45.50
10300;DHT22;5195;48.562;9.192;2023-01-29T07:26:45;3.80;45.70
10300;DHT22;5195;48.562;9.192;2023-01-29T07:29:22;3.90;45.80
10300;DHT22;5195;48.562;9.192;2023-01-29T07:32:03;3.80;45.40
10300;DHT22;5195;48.562;9.192;2023-01-29T07:34:37;3.80;45.40
10300;DHT22;5195;48.562;9.192;2023-01-29T07:37:12;3.80;45.70
10300;DHT22;5195;48.562;9.192;2023-01-29T07:39:48;3.50;46.20
10300;DHT22;5195;48.562;9.192;2023-01-29T07:42:24;3.20;47.20
10300;DHT22;5195;48.562;9.192;2023-01-29T07:45:00;3.20;47.20
10300;DHT22;5195;48.562;9.192;2023-01-29T07:47:35;3.30;46.40
10300;DHT22;5195;48.562;9.192;2023-01-29T07:50:12;3.40;46.50
10300;DHT22;5195;48.562;9.192;2023-01-29T07:52:50;3.50;46.40
10300;DHT22;5195;48.562;9.192;2023-01-29T07:55:26;3.80;45.60
10300;DHT22;5195;48.562;9.192;2023-01-29T07:58:03;3.60;46.40
10300;DHT22;5195;48.562;9.192;2023-01-29T08:00:37;3.60;46.40
10300;DHT22;5195;48.562;9.192;2023-01-29T08:03:14;3.40;46.80
10300;DHT22;5195;48.562;9.192;2023-01-29T08:05:50;3.50;45.90
10300;DHT22;5195;48.562;9.192;2023-01-29T08:08:26;3.60;45.70
10300;DHT22;5195;48.562;9.192;2023-01-29T08:11:02;3.50;46.30
10300;DHT22;5195;48.562;9.192;2023-01-29T08:13:36;3.30;46.80
10300;DHT22;5195;48.562;9.192;2023-01-29T08:16:12;3.40;46.00
10300;DHT22;5195;48.562;9.192;2023-01-29T08:18:49;3.40;46.00
10300;DHT22;5195;48.562;9.192;2023-01-29T08:21:24;4.10;44.40
10300;DHT22;5195;48.562;9.192;2023-01-29T08:24:01;4.10;44.30
10300;DHT22;5195;48.562;9.192;2023-01-29T08:26:38;4.30;43.70
10300;DHT22;5195;48.562;9.192;2023-01-29T08:29:13;3.90;45.00
10300;DHT22;5195;48.562;9.192;2023-01-29T08:31:49;3.70;45.50
10300;DHT22;5195;48.562;9.192;2023-01-29T08:34:25;3.70;45.40
10300;DHT22;5195;48.562;9.192;2023-01-29T08:37:03;4.10;44.10
10300;DHT22;5195;48.562;9.192;2023-01-29T08:39:38;4.10;44.10
10300;DHT22;5195;48.562;9.192;2023-01-29T08:42:14;4.10;44.50
10300;DHT22;5195;48.562;9.192;2023-01-29T08:44:49;3.90;45.10
10300;DHT22;5195;48.562;9.192;2023-01-29T08:47:25;3.60;46.20
10300;DHT22;5195;48.562;9.192;2023-01-29T08:50:01;3.60;46.10
10300;DHT22;5195;48.562;9.192;2023-01-29T08:52:36;3.70;45.30
10300;DHT22;5195;48.562;9.192;2023-01-29T08:55:12;3.80;45.60
10300;DHT22;5195;48.562;9.192;2023-01-29T08:57:48;4.30;44.40
10300;DHT22;5195;48.562;9.192;2023-01-29T09:00:25;4.30;44.40
10300;DHT22;5195;48.562;9.192;2023-01-29T09:03:01;4.30;44.60
10300;DHT22;5195;48.562;9.192;2023-01-29T09:05:36;4.10;45.10
10300;DHT22;5195;48.562;9.192;2023-01-29T09:08:11;4.10;45.00
10300;DHT22;5195;48.562;9.192;2023-01-29T09:10:48;4.10;44.50
10300;DHT22;5195;48.562;9.192;2023-01-29T09:13:24;4.40;43.80
10300;DHT22;5195;48.562;9.192;2023-01-29T09:16:03;4.50;43.60
10300;DHT22;5195;48.562;9.192;2023-01-29T09:18:38;4.40;43.50
10300;DHT22;5195;48.562;9.192;2023-01-29T09:21:19;4.70;43.10
10300;DHT22;5195;48.562;9.192;2023-01-29T09:23:57;4.90;42.50
10300;DHT22;5195;48.562;9.192;2023-01-29T09:26:31;5.10;41.80
10300;DHT22;5195;48.562;9.192;2023-01-29T09:29:09;5.40;41.60
10300;DHT22;5195;48.562;9.192;2023-01-29T09:31:44;5.40;41.60
10300;DHT22;5195;48.562;9.192;2023-01-29T09:34:21;5.50;40.90
10300;DHT22;5195;48.562;9.192;2023-01-29T09:36:57;5.40;42.40
10300;DHT22;5195;48.562;9.192;2023-01-29T09:39:33;5.40;41.70
10300;DHT22;5195;48.562;9.192;2023-01-29T09:42:11;5.30;41.50
10300;DHT22;5195;48.562;9.192;2023-01-29T09:47:36;5.20;42.10
10300;DHT22;5195;48.562;9.192;2023-01-29T09:50:19;5.00;42.60
10300;DHT22;5195;48.562;9.192;2023-01-29T09:53:10;4.70;43.30
10300;DHT22;5195;48.562;9.192;2023-01-29T09:55:45;4.50;44.10
10300;DHT22;5195;48.562;9.192;2023-01-29T10:01:11;4.20;45.10
10300;DHT22;5195;48.562;9.192;2023-01-29T10:12:45;3.90;46.30
10300;DHT22;5195;48.562;9.192;2023-01-29T10:15:41;3.80;46.50
10300;DHT22;5195;48.562;9.192;2023-01-29T10:18:40;4.00;45.00
10300;DHT22;5195;48.562;9.192;2023-01-29T10:21:36;4.20;45.00
10300;DHT22;5195;48.562;9.192;2023-01-29T10:23:48;4.40;43.50
10300;DHT22;5195;48.562;9.192;2023-01-29T10:26:23;4.80;43.10
10300;DHT22;5195;48.562;9.192;2023-01-29T10:28:59;5.10;42.50
10300;DHT22;5195;48.562;9.192;2023-01-29T10:31:51;5.20;41.70
10300;DHT22;5195;48.562;9.192;2023-01-29T10:34:37;5.20;41.70
10300;DHT22;5195;48.562;9.192;2023-01-29T10:34:42;5.20;41.70
10300;DHT22;5195;48.562;9.192;2023-01-29T10:37:21;5.50;41.60
10300;DHT22;5195;48.562;9.192;2023-01-29T10:39:54;5.80;43.00
10300;DHT22;5195;48.562;9.192;2023-01-29T10:42:39;6.10;44.00
10300;DHT22;5195;48.562;9.192;2023-01-29T10:45:21;6.10;44.20
10300;DHT22;5195;48.562;9.192;2023-01-29T10:48:06;5.90;44.80
10300;DHT22;5195;48.562;9.192;2023-01-29T10:51:01;5.70;45.30
10300;DHT22;5195;48.562;9.192;2023-01-29T10:56:49;6.30;42.90
10300;DHT22;5195;48.562;9.192;2023-01-29T11:02:45;6.40;42.90
10300;DHT22;5195;48.562;9.192;2023-01-29T11:05:26;6.80;43.00
10300;DHT22;5195;48.562;9.192;2023-01-29T11:08:04;7.00;42.00
10300;DHT22;5195;48.562;9.192;2023-01-29T11:10:43;6.90;42.60
10300;DHT22;5195;48.562;9.192;2023-01-29T11:13:13;6.60;42.90
10300;DHT22;5195;48.562;9.192;2023-01-29T11:15:50;6.60;42.50
10300;DHT22;5195;48.562;9.192;2023-01-29T11:18:24;6.50;43.20
10300;DHT22;5195;48.562;9.192;2023-01-29T11:21:01;6.60;42.90
10300;DHT22;5195;48.562;9.192;2023-01-29T11:23:36;6.90;41.80
10300;DHT22;5195;48.562;9.192;2023-01-29T11:26:16;6.80;42.40
10300;DHT22;5195;48.562;9.192;2023-01-29T11:28:53;6.50;43.30
10300;DHT22;5195;48.562;9.192;2023-01-29T11:31:38;6.70;43.00
10300;DHT22;5195;48.562;9.192;2023-01-29T11:34:20;7.00;42.10
10300;DHT22;5195;48.562;9.192;2023-01-29T11:36:56;7.30;41.40
10300;DHT22;5195;48.562;9.192;2023-01-29T11:39:31;7.30;42.20
10300;DHT22;5195;48.562;9.192;2023-01-29T11:42:12;7.10;42.70
10300;DHT22;5195;48.562;9.192;2023-01-29T11:44:43;7.10;41.50
10300;DHT22;5195;48.562;9.192;2023-01-29T11:47:25;7.70;40.40
10300;DHT22;5195;48.562;9.192;2023-01-29T11:50:00;7.70;40.40
10300;DHT22;5195;48.562;9.192;2023-01-29T11:52:36;7.50;41.00
10300;DHT22;5195;48.562;9.192;2023-01-29T11:55:24;7.20;41.80
10300;DHT22;5195;48.562;9.192;2023-01-29T11:58:12;7.00;42.50
10300;DHT22;5195;48.562;9.192;2023-01-29T12:00:51;6.70;43.30
10300;DHT22;5195;48.562;9.192;2023-01-29T12:03:42;6.90;42.10
10300;DHT22;5195;48.562;9.192;2023-01-29T12:06:43;7.30;42.20
10300;DHT22;5195;48.562;9.192;2023-01-29T12:09:02;7.30;42.20
10300;DHT22;5195;48.562;9.192;2023-01-29T12:11:36;7.00;42.70
10300;DHT22;5195;48.562;9.192;2023-01-29T12:14:31;6.90;40.80
10300;DHT22;5195;48.562;9.192;2023-01-29T12:17:16;7.20;41.70
10300;DHT22;5195;48.562;9.192;2023-01-29T12:17:19;7.20;41.70
10300;DHT22;5195;48.562;9.192;2023-01-29T12:19:52;7.20;41.00
10300;DHT22;5195;48.562;9.192;2023-01-29T12:22:39;7.50;40.70
10300;DHT22;5195;48.562;9.192;2023-01-29T12:28:27;7.60;41.00
10300;DHT22;5195;48.562;9.192;2023-01-29T12:31:10;7.20;41.90
10300;DHT22;5195;48.562;9.192;2023-01-29T12:34:02;6.90;42.70
10300;DHT22;5195;48.562;9.192;2023-01-29T12:36:48;7.00;42.00
10300;DHT22;5195;48.562;9.192;2023-01-29T12:39:26;7.30;40.60
10300;DHT22;5195;48.562;9.192;2023-01-29T12:42:29;7.80;40.10
10300;DHT22;5195;48.562;9.192;2023-01-29T12:44:41;7.80;40.00
10300;DHT22;5195;48.562;9.192;2023-01-29T12:47:34;7.90;40.00
10300;DHT22;5195;48.562;9.192;2023-01-29T12:50:21;8.00;39.80
10300;DHT22;5195;48.562;9.192;2023-01-29T12:52:59;8.10;38.90
10300;DHT22;5195;48.562;9.192;2023-01-29T12:55:41;7.80;39.80
10300;DHT22;5195;48.562;9.192;2023-01-29T12:58:29;7.40;41.00
10300;DHT22;5195;48.562;9.192;2023-01-29T13:01:04;7.40;40.30
10300;DHT22;5195;48.562;9.192;2023-01-29T13:03:52;7.30;41.20
10300;DHT22;5195;48.562;9.192;2023-01-29T13:06:29;7.30;40.10
10300;DHT22;5195;48.562;9.192;2023-01-29T13:09:08;7.20;41.10
10300;DHT22;5195;48.562;9.192;2023-01-29T13:11:44;6.90;41.80
10300;DHT22;5195;48.562;9.192;2023-01-29T13:14:26;6.70;42.60
10300;DHT22;5195;48.562;9.192;2023-01-29T13:20:41;6.80;42.70
10300;DHT22;5195;48.562;9.192;2023-01-29T13:22:47;6.80;42.70
10300;DHT22;5195;48.562;9.192;2023-01-29T13:25:23;6.40;43.40
10300;DHT22;5195;48.562;9.192;2023-01-29T13:27:59;6.40;43.40
10300;DHT22;5195;48.562;9.192;2023-01-29T13:30:35;6.60;42.40
10300;DHT22;5195;48.562;9.192;2023-01-29T13:33:22;6.60;42.80
10300;DHT22;5195;48.562;9.192;2023-01-29T13:35:57;6.20;43.60
10300;DHT22;5195;48.562;9.192;2023-01-29T13:38:33;6.40;42.90
10300;DHT22;5195;48.562;9.192;2023-01-29T13:41:08;6.30;42.80
10300;DHT22;5195;48.562;9.192;2023-01-29T13:43:55;6.70;42.00
10300;DHT22;5195;48.562;9.192;2023-01-29T13:46:32;7.00;41.30
10300;DHT22;5195;48.562;9.192;2023-01-29T13:49:16;6.90;41.90
10300;DHT22;5195;48.562;9.192;2023-01-29T13:51:43;6.60;42.60
10300;DHT22;5195;48.562;9.192;2023-01-29T13:54:23;6.60;41.80
10300;DHT22;5195;48.562;9.192;2023-01-29T13:56:58;6.60;42.50
10300;DHT22;5195;48.562;9.192;2023-01-29T13:59:54;6.40;43.10
10300;DHT22;5195;48.562;9.192;2023-01-29T14:02:29;6.20;43.70
10300;DHT22;5195;48.562;9.192;2023-01-29T14:11:26;6.60;42.60
10300;DHT22;5195;48.562;9.192;2023-01-29T14:13:27;6.40;43.30
10300;DHT22;5195;48.562;9.192;2023-01-29T14:18:59;6.30;43.00
10300;DHT22;5195;48.562;9.192;2023-01-29T14:23:56;6.20;43.90
10300;DHT22;5195;48.562;9.192;2023-01-29T14:26:39;5.90;44.90
10300;DHT22;5195;48.562;9.192;2023-01-29T14:31:56;6.10;43.90
10300;DHT22;5195;48.562;9.192;2023-01-29T14:35:02;6.00;44.40
10300;DHT22;5195;48.562;9.192;2023-01-29T14:37:37;6.00;44.40
10300;DHT22;5195;48.562;9.192;2023-01-29T14:40:18;6.20;43.60
10300;DHT22;5195;48.562;9.192;2023-01-29T14:43:00;6.20;43.80
10300;DHT22;5195;48.562;9.192;2023-01-29T14:45:35;6.40;43.10
10300;DHT22;5195;48.562;9.192;2023-01-29T14:50:49;6.40;42.70
10300;DHT22;5195;48.562;9.192;2023-01-29T14:53:41;6.70;42.30
10300;DHT22;5195;48.562;9.192;2023-01-29T14:56:18;6.60;42.90
10300;DHT22;5195;48.562;9.192;2023-01-29T14:58:52;6.60;42.30
10300;DHT22;5195;48.562;9.192;2023-01-29T15:01:37;6.80;41.90
10300;DHT22;5195;48.562;9.192;2023-01-29T15:04:14;6.70;42.50
10300;DHT22;5195;48.562;9.192;2023-01-29T15:09:48;6.40;43.20
10300;DHT22;5195;48.562;9.192;2023-01-29T15:12:45;6.70;42.50
10300;DHT22;5195;48.562;9.192;2023-01-29T15:12:48;6.70;42.50
10300;DHT22;5195;48.562;9.192;2023-01-29T15:15:48;7.00;41.80
10300;DHT22;5195;48.562;9.192;2023-01-29T15:18:18;7.20;41.50
10300;DHT22;5195;48.562;9.192;2023-01-29T15:23:39;6.50;43.00
10300;DHT22;5195;48.562;9.192;2023-01-29T15:26:25;6.50;42.60
10300;DHT22;5195;48.562;9.192;2023-01-29T15:28:57;6.40;42.90
10300;DHT22;5195;48.562;9.192;2023-01-29T15:31:31;5.80;43.90
10300;DHT22;5195;48.562;9.192;2023-01-29T15:34:07;5.80;43.90
10300;DHT22;5195;48.562;9.192;2023-01-29T15:36:46;5.90;43.20
10300;DHT22;5195;48.562;9.192;2023-01-29T15:39:23;6.10;42.30
10300;DHT22;5195;48.562;9.192;2023-01-29T15:42:12;6.00;43.00
10300;DHT22;5195;48.562;9.192;2023-01-29T15:44:48;6.00;42.50
10300;DHT22;5195;48.562;9.192;2023-01-29T15:47:29;6.20;42.10
10300;DHT22;5195;48.562;9.192;2023-01-29T15:50:00;6.30;41.70
10300;DHT22;5195;48.562;9.192;2023-01-29T15:52:34;6.10;42.30
10300;DHT22;5195;48.562;9.192;2023-01-29T15:55:10;5.70;43.10
10300;DHT22;5195;48.562;9.192;2023-01-29T15:57:46;5.40;43.90
10300;DHT22;5195;48.562;9.192;2023-01-29T16:00:25;5.20;44.50
10300;DHT22;5195;48.562;9.192;2023-01-29T16:03:05;5.20;44.20
10300;DHT22;5195;48.562;9.192;2023-01-29T16:05:36;5.20;44.40
10300;DHT22;5195;48.562;9.192;2023-01-29T16:08:12;5.30;44.50
10300;DHT22;5195;48.562;9.192;2023-01-29T16:10:47;5.60;44.10
10300;DHT22;5195;48.562;9.192;2023-01-29T16:13:25;5.80;43.50
10300;DHT22;5195;48.562;9.192;2023-01-29T16:18:53;5.60;44.00
10300;DHT22;5195;48.562;9.192;2023-01-29T16:21:40;5.30;44.30
10300;DHT22;5195;48.562;9.192;2023-01-29T16:24:15;5.30;44.30
10300;DHT22;5195;48.562;9.192;2023-01-29T16:26:56;4.90;45.40
10300;DHT22;5195;48.562;9.192;2023-01-29T16:29:32;4.80;45.10
10300;DHT22;5195;48.562;9.192;2023-01-29T16:32:07;4.60;45.60
10300;DHT22;5195;48.562;9.192;2023-01-29T16:34:44;4.40;46.10
10300;DHT22;5195;48.562;9.192;2023-01-29T16:37:24;4.20;46.50
10300;DHT22;5195;48.562;9.192;2023-01-29T16:39:54;4.00;46.70
10300;DHT22;5195;48.562;9.192;2023-01-29T16:42:34;3.90;47.00
10300;DHT22;5195;48.562;9.192;2023-01-29T16:45:07;4.10;47.10
10300;DHT22;5195;48.562;9.192;2023-01-29T16:47:40;4.20;46.90
10300;DHT22;5195;48.562;9.192;2023-01-29T16:53:02;4.20;47.00
10300;DHT22;5195;48.562;9.192;2023-01-29T16:55:41;4.20;46.90
10300;DHT22;5195;48.562;9.192;2023-01-29T16:58:21;4.40;46.70
10300;DHT22;5195;48.562;9.192;2023-01-29T17:00:59;4.70;45.50
10300;DHT22;5195;48.562;9.192;2023-01-29T17:03:33;4.90;44.60
10300;DHT22;5195;48.562;9.192;2023-01-29T17:06:24;4.70;44.80
10300;DHT22;5195;48.562;9.192;2023-01-29T17:08:51;4.30;45.50
10300;DHT22;5195;48.562;9.192;2023-01-29T17:11:37;3.90;46.10
10300;DHT22;5195;48.562;9.192;2023-01-29T17:14:00;4.00;46.00
10300;DHT22;5195;48.562;9.192;2023-01-29T17:16:46;3.90;46.00
10300;DHT22;5195;48.562;9.192;2023-01-29T17:19:15;3.40;47.50
10300;DHT22;5195;48.562;9.192;2023-01-29T17:21:48;3.30;46.80
10300;DHT22;5195;48.562;9.192;2023-01-29T17:24:29;3.50;46.90
10300;DHT22;5195;48.562;9.192;2023-01-29T17:27:04;3.90;46.40
10300;DHT22;5195;48.562;9.192;2023-01-29T17:29:39;3.80;46.30
10300;DHT22;5195;48.562;9.192;2023-01-29T17:32:16;3.90;46.90
10300;DHT22;5195;48.562;9.192;2023-01-29T17:34:53;3.80;47.10
10300;DHT22;5195;48.562;9.192;2023-01-29T17:37:28;3.70;47.70
10300;DHT22;5195;48.562;9.192;2023-01-29T17:40:08;3.50;48.00
10300;DHT22;5195;48.562;9.192;2023-01-29T17:42:40;3.20;48.30
10300;DHT22;5195;48.562;9.192;2023-01-29T17:45:18;3.20;48.30
10300;DHT22;5195;48.562;9.192;2023-01-29T17:47:54;3.40;48.30
10300;DHT22;5195;48.562;9.192;2023-01-29T17:50:29;3.80;47.30
10300;DHT22;5195;48.562;9.192;2023-01-29T17:53:06;4.10;46.50
10300;DHT22;5195;48.562;9.192;2023-01-29T17:55:40;3.90;46.40
10300;DHT22;5195;48.562;9.192;2023-01-29T17:58:23;3.60;46.90
10300;DHT22;5195;48.562;9.192;2023-01-29T18:00:59;3.20;47.50
10300;DHT22;5195;48.562;9.192;2023-01-29T18:03:34;3.30;47.90
10300;DHT22;5195;48.562;9.192;2023-01-29T18:06:10;3.30;47.80
10300;DHT22;5195;48.562;9.192;2023-01-29T18:08:47;3.40;47.90
10300;DHT22;5195;48.562;9.192;2023-01-29T18:11:23;3.40;47.50
10300;DHT22;5195;48.562;9.192;2023-01-29T18:13:59;3.40;47.90
10300;DHT22;5195;48.562;9.192;2023-01-29T18:16:34;3.60;47.60
10300;DHT22;5195;48.562;9.192;2023-01-29T18:21:49;4.00;46.70
10300;DHT22;5195;48.562;9.192;2023-01-29T18:24:25;3.80;46.90
10300;DHT22;5195;48.562;9.192;2023-01-29T18:26:59;3.70;47.20
10300;DHT22;5195;48.562;9.192;2023-01-29T18:29:36;3.80;46.90
10300;DHT22;5195;48.562;9.192;2023-01-29T18:32:12;3.90;46.50
10300;DHT22;5195;48.562;9.192;2023-01-29T18:34:48;4.00;46.20
10300;DHT22;5195;48.562;9.192;2023-01-29T18:37:24;4.10;46.30
10300;DHT22;5195;48.562;9.192;2023-01-29T18:40:00;3.80;46.60